sensor_id;sensor_type;location;lat;lon;timestamp;temperature;humidity
36652;DHT22;53334;51.976;20.144;2024-03-23T00:54:09;26.40;48.30
36652;DHT22;53334;51.976;20.144;2024-03-23T00:56:41;26.40;48.40
36652;DHT22;53334;51.976;20.144;2024-03-23T00:59:12;26.40;48.40
36652;DHT22;53334;51.976;20.144;2024-03-23T01:01:44;26.40;48.30
36652;DHT22;53334;51.976;20.144;2024-03-23T01:04:15;26.40;48.30
36652;DHT22;53334;51.976;20.144;2024-03-23T01:06:47;26.40;48.30
36652;DHT22;53334;51.976;20.144;2024-03-23T01:09:20;26.40;48.40
36652;DHT22;53334;51.976;20.144;2024-03-23T01:11:53;26.40;48.30
36652;DHT22;53334;51.976;20.144;2024-03-23T01:14:25;26.40;48.20
36652;DHT22;53334;51.976;20.144;2024-03-23T01:16:57;26.40;48.30
36652;DHT22;53334;51.976;20.144;2024-03-23T01:19:27;26.40;48.30
36652;DHT22;53334;51.976;20.144;2024-03-23T01:21:59;26.40;48.30
36652;DHT22;53334;51.976;20.144;2024-03-23T01:24:32;26.40;48.30
36652;DHT22;53334;51.976;20.144;2024-03-23T01:27:04;26.40;48.40
36652;DHT22;53334;51.976;20.144;2024-03-23T01:29:35;26.40;48.30
36652;DHT22;53334;51.976;20.144;2024-03-23T01:32:07;26.40;48.30
36652;DHT22;53334;51.976;20.144;2024-03-23T01:34:38;26.40;48.30
36652;DHT22;53334;51.976;20.144;2024-03-23T01:37:10;26.40;48.60
36652;DHT22;53334;51.976;20.144;2024-03-23T01:39:42;26.40;48.20
36652;DHT22;53334;51.976;20.144;2024-03-23T01:42:14;26.40;48.20
36652;DHT22;53334;51.976;20.144;2024-03-23T01:44:45;26.40;48.10
36652;DHT22;53334;51.976;20.144;2024-03-23T01:47:17;26.40;48.00
36652;DHT22;53334;51.976;20.144;2024-03-23T01:49:48;26.40;47.80
36652;DHT22;53334;51.976;20.144;2024-03-23T01:52:20;26.40;47.60
36652;DHT22;53334;51.976;20.144;2024-03-23T01:54:52;26.30;47.50
36652;DHT22;53334;51.976;20.144;2024-03-23T01:57:24;26.40;47.60
36652;DHT22;53334;51.976;20.144;2024-03-23T01:59:56;26.30;47.20
36652;DHT22;53334;51.976;20.144;2024-03-23T02:02:32;26.40;47.20
36652;DHT22;53334;51.976;20.144;2024-03-23T02:05:04;26.40;47.40
36652;DHT22;53334;51.976;20.144;2024-03-23T02:07:36;26.30;47.20
36652;DHT22;53334;51.976;20.144;2024-03-23T02:10:09;26.30;47.10
36652;DHT22;53334;51.976;20.144;2024-03-23T02:12:43;26.30;47.00
36652;DHT22;53334;51.976;20.144;2024-03-23T02:15:15;26.30;47.00
36652;DHT22;53334;51.976;20.144;2024-03-23T02:17:47;26.30;46.80
36652;DHT22;53334;51.976;20.144;2024-03-23T02:20:18;26.30;46.90
36652;DHT22;53334;51.976;20.144;2024-03-23T02:22:51;26.30;46.70
36652;DHT22;53334;51.976;20.144;2024-03-23T02:25:22;26.30;46.90
36652;DHT22;53334;51.976;20.144;2024-03-23T02:27:54;26.30;46.90
36652;DHT22;53334;51.976;20.144;2024-03-23T02:30:26;26.30;46.90
36652;DHT22;53334;51.976;20.144;2024-03-23T02:32:58;26.30;47.00
36652;DHT22;53334;51.976;20.144;2024-03-23T02:35:29;26.30;47.60
36652;DHT22;53334;51.976;20.144;2024-03-23T02:38:04;26.30;47.00
36652;DHT22;53334;51.976;20.144;2024-03-23T02:40:35;26.30;46.90
36652;DHT22;53334;51.976;20.144;2024-03-23T02:43:08;26.30;46.80
36652;DHT22;53334;51.976;20.144;2024-03-23T02:45:39;26.30;46.60
36652;DHT22;53334;51.976;20.144;2024-03-23T02:48:11;26.30;46.70
36652;DHT22;53334;51.976;20.144;2024-03-23T02:50:42;26.30;46.60
36652;DHT22;53334;51.976;20.144;2024-03-23T02:53:15;26.30;46.60
36652;DHT22;53334;51.976;20.144;2024-03-23T02:55:47;26.30;46.50
36652;DHT22;53334;51.976;20.144;2024-03-23T02:58:19;26.30;46.50
36652;DHT22;53334;51.976;20.144;2024-03-23T03:00:50;26.30;46.50
36652;DHT22;53334;51.976;20.144;2024-03-23T03:03:22;26.30;46.40
36652;DHT22;53334;51.976;20.144;2024-03-23T03:05:54;26.30;46.40
36652;DHT22;53334;51.976;20.144;2024-03-23T03:08:28;26.30;46.40
36652;DHT22;53334;51.976;20.144;2024-03-23T03:10:59;26.20;46.40
36652;DHT22;53334;51.976;20.144;2024-03-23T03:13:31;26.20;46.50
36652;DHT22;53334;51.976;20.144;2024-03-23T03:16:02;26.20;46.60
36652;DHT22;53334;51.976;20.144;2024-03-23T03:18:34;26.20;46.70
36652;DHT22;53334;51.976;20.144;2024-03-23T03:21:06;26.20;46.80
36652;DHT22;53334;51.976;20.144;2024-03-23T03:23:42;26.20;46.50
36652;DHT22;53334;51.976;20.144;2024-03-23T03:26:15;26.20;47.50
36652;DHT22;53334;51.976;20.144;2024-03-23T03:28:47;26.20;48.30
36652;DHT22;53334;51.976;20.144;2024-03-23T03:31:19;26.20;48.90
36652;DHT22;53334;51.976;20.144;2024-03-23T03:33:51;26.20;49.00
36652;DHT22;53334;51.976;20.144;2024-03-23T03:36:22;26.30;49.00
36652;DHT22;53334;51.976;20.144;2024-03-23T03:38:55;26.20;49.20
36652;DHT22;53334;51.976;20.144;2024-03-23T03:41:26;26.20;49.40
36652;DHT22;53334;51.976;20.144;2024-03-23T03:43:58;26.20;49.40
36652;DHT22;53334;51.976;20.144;2024-03-23T03:46:32;26.30;49.60
36652;DHT22;53334;51.976;20.144;2024-03-23T03:49:04;26.20;49.50
36652;DHT22;53334;51.976;20.144;2024-03-23T03:51:36;26.20;49.40
36652;DHT22;53334;51.976;20.144;2024-03-23T03:54:09;26.30;49.60
36652;DHT22;53334;51.976;20.144;2024-03-23T03:56:40;26.30;49.60
36652;DHT22;53334;51.976;20.144;2024-03-23T03:59:12;26.30;49.70
36652;DHT22;53334;51.976;20.144;2024-03-23T04:01:43;26.30;49.70
36652;DHT22;53334;51.976;20.144;2024-03-23T04:04:15;26.30;49.80
36652;DHT22;53334;51.976;20.144;2024-03-23T04:06:47;26.20;49.80
36652;DHT22;53334;51.976;20.144;2024-03-23T04:09:21;26.30;49.80
36652;DHT22;53334;51.976;20.144;2024-03-23T04:11:52;26.30;49.80
36652;DHT22;53334;51.976;20.144;2024-03-23T04:14:24;26.30;49.80
36652;DHT22;53334;51.976;20.144;2024-03-23T04:16:55;26.30;49.70
36652;DHT22;53334;51.976;20.144;2024-03-23T04:19:27;26.20;49.70
36652;DHT22;53334;51.976;20.144;2024-03-23T04:21:58;26.20;49.70
36652;DHT22;53334;51.976;20.144;2024-03-23T04:24:31;26.30;49.70
36652;DHT22;53334;51.976;20.144;2024-03-23T04:27:02;26.20;49.70
36652;DHT22;53334;51.976;20.144;2024-03-23T04:29:34;26.20;49.60
36652;DHT22;53334;51.976;20.144;2024-03-23T04:32:05;26.20;49.60
36652;DHT22;53334;51.976;20.144;2024-03-23T04:34:37;26.20;49.60
36652;DHT22;53334;51.976;20.144;2024-03-23T04:37:08;26.20;49.50
36652;DHT22;53334;51.976;20.144;2024-03-23T04:39:41;26.20;49.50
36652;DHT22;53334;51.976;20.144;2024-03-23T04:42:14;26.20;49.60
36652;DHT22;53334;51.976;20.144;2024-03-23T04:44:46;26.20;49.70
36652;DHT22;53334;51.976;20.144;2024-03-23T04:47:18;26.20;49.70
36652;DHT22;53334;51.976;20.144;2024-03-23T04:49:50;26.20;49.70
36652;DHT22;53334;51.976;20.144;2024-03-23T04:52:23;26.20;49.70
36652;DHT22;53334;51.976;20.144;2024-03-23T04:54:59;26.20;49.70
36652;DHT22;53334;51.976;20.144;2024-03-23T04:57:31;26.20;49.70
36652;DHT22;53334;51.976;20.144;2024-03-23T05:00:02;26.20;49.70
36652;DHT22;53334;51.976;20.144;2024-03-23T05:02:36;26.20;49.60
36652;DHT22;53334;51.976;20.144;2024-03-23T05:05:08;26.20;49.60
36652;DHT22;53334;51.976;20.144;2024-03-23T05:07:40;26.20;49.60
36652;DHT22;53334;51.976;20.144;2024-03-23T05:10:13;26.20;49.50
36652;DHT22;53334;51.976;20.144;2024-03-23T05:12:44;26.20;49.50
36652;DHT22;53334;51.976;20.144;2024-03-23T05:15:16;26.20;49.40
36652;DHT22;53334;51.976;20.144;2024-03-23T05:17:47;26.20;49.40
36652;DHT22;53334;51.976;20.144;2024-03-23T05:20:19;26.20;49.40
36652;DHT22;53334;51.976;20.144;2024-03-23T05:22:50;26.20;49.40
36652;DHT22;53334;51.976;20.144;2024-03-23T05:25:23;26.20;49.40
36652;DHT22;53334;51.976;20.144;2024-03-23T05:27:54;26.20;49.40
36652;DHT22;53334;51.976;20.144;2024-03-23T05:30:26;26.20;49.40
36652;DHT22;53334;51.976;20.144;2024-03-23T05:32:57;26.30;49.50
36652;DHT22;53334;51.976;20.144;2024-03-23T05:35:29;26.20;49.40
36652;DHT22;53334;51.976;20.144;2024-03-23T05:38:00;26.20;49.50
36652;DHT22;53334;51.976;20.144;2024-03-23T05:40:33;26.20;49.50
36652;DHT22;53334;51.976;20.144;2024-03-23T05:43:07;26.20;49.50
36652;DHT22;53334;51.976;20.144;2024-03-23T05:45:40;26.20;49.50
36652;DHT22;53334;51.976;20.144;2024-03-23T05:48:11;26.30;49.50
36652;DHT22;53334;51.976;20.144;2024-03-23T05:50:43;26.20;49.40
36652;DHT22;53334;51.976;20.144;2024-03-23T05:53:14;26.30;49.50
36652;DHT22;53334;51.976;20.144;2024-03-23T05:55:47;26.20;49.40
36652;DHT22;53334;51.976;20.144;2024-03-23T05:58:18;26.20;49.40
36652;DHT22;53334;51.976;20.144;2024-03-23T06:00:56;26.20;49.40
36652;DHT22;53334;51.976;20.144;2024-03-23T06:03:27;26.20;49.40
36652;DHT22;53334;51.976;20.144;2024-03-23T06:05:59;26.20;49.40
36652;DHT22;53334;51.976;20.144;2024-03-23T06:08:30;26.20;49.40
36652;DHT22;53334;51.976;20.144;2024-03-23T06:11:04;26.20;49.40
36652;DHT22;53334;51.976;20.144;2024-03-23T06:13:35;26.20;49.40
36652;DHT22;53334;51.976;20.144;2024-03-23T06:16:07;26.20;49.40
36652;DHT22;53334;51.976;20.144;2024-03-23T06:18:39;26.20;49.50
36652;DHT22;53334;51.976;20.144;2024-03-23T06:21:13;26.20;49.50
36652;DHT22;53334;51.976;20.144;2024-03-23T06:23:44;26.20;49.50
36652;DHT22;53334;51.976;20.144;2024-03-23T06:26:22;26.20;49.50
36652;DHT22;53334;51.976;20.144;2024-03-23T06:28:53;26.20;49.50
36652;DHT22;53334;51.976;20.144;2024-03-23T06:31:26;26.20;49.50
36652;DHT22;53334;51.976;20.144;2024-03-23T06:33:57;26.30;49.60
36652;DHT22;53334;51.976;20.144;2024-03-23T06:36:29;26.20;49.40
36652;DHT22;53334;51.976;20.144;2024-03-23T06:39:01;26.20;49.40
36652;DHT22;53334;51.976;20.144;2024-03-23T06:41:34;26.20;49.40
36652;DHT22;53334;51.976;20.144;2024-03-23T06:44:06;26.20;49.40
36652;DHT22;53334;51.976;20.144;2024-03-23T06:46:38;26.20;49.40
36652;DHT22;53334;51.976;20.144;2024-03-23T06:49:09;26.20;49.30
36652;DHT22;53334;51.976;20.144;2024-03-23T06:51:40;26.20;49.30
36652;DHT22;53334;51.976;20.144;2024-03-23T06:54:11;26.20;49.30
36652;DHT22;53334;51.976;20.144;2024-03-23T06:56:45;26.20;49.30
36652;DHT22;53334;51.976;20.144;2024-03-23T06:59:16;26.20;49.30
36652;DHT22;53334;51.976;20.144;2024-03-23T07:01:48;26.20;49.30
36652;DHT22;53334;51.976;20.144;2024-03-23T07:04:19;26.20;49.30
36652;DHT22;53334;51.976;20.144;2024-03-23T07:06:51;26.20;49.30
36652;DHT22;53334;51.976;20.144;2024-03-23T07:09:22;26.20;49.40
36652;DHT22;53334;51.976;20.144;2024-03-23T07:11:58;26.20;49.40
36652;DHT22;53334;51.976;20.144;2024-03-23T07:14:29;26.20;49.40
36652;DHT22;53334;51.976;20.144;2024-03-23T07:17:01;26.20;49.40
36652;DHT22;53334;51.976;20.144;2024-03-23T07:19:32;26.20;49.50
36652;DHT22;53334;51.976;20.144;2024-03-23T07:22:04;26.20;49.40
36652;DHT22;53334;51.976;20.144;2024-03-23T07:24:35;26.20;49.40
36652;DHT22;53334;51.976;20.144;2024-03-23T07:27:08;26.20;49.50
36652;DHT22;53334;51.976;20.144;2024-03-23T07:29:40;26.20;49.50
36652;DHT22;53334;51.976;20.144;2024-03-23T07:32:12;26.20;50.00
36652;DHT22;53334;51.976;20.144;2024-03-23T07:34:43;26.20;50.40
36652;DHT22;53334;51.976;20.144;2024-03-23T07:37:15;26.20;50.10
36652;DHT22;53334;51.976;20.144;2024-03-23T07:39:46;26.20;50.10
36652;DHT22;53334;51.976;20.144;2024-03-23T07:42:19;26.20;49.90
36652;DHT22;53334;51.976;20.144;2024-03-23T07:44:50;26.20;49.80
36652;DHT22;53334;51.976;20.144;2024-03-23T07:47:22;26.20;49.70
36652;DHT22;53334;51.976;20.144;2024-03-23T07:49:53;26.20;49.70
36652;DHT22;53334;51.976;20.144;2024-03-23T07:52:27;26.20;49.90
36652;DHT22;53334;51.976;20.144;2024-03-23T07:54:58;26.20;50.00
36652;DHT22;53334;51.976;20.144;2024-03-23T07:57:31;26.20;50.70
36652;DHT22;53334;51.976;20.144;2024-03-23T08:00:03;26.20;50.80
36652;DHT22;53334;51.976;20.144;2024-03-23T08:02:35;26.30;50.50
36652;DHT22;53334;51.976;20.144;2024-03-23T08:05:06;26.30;50.70
36652;DHT22;53334;51.976;20.144;2024-03-23T08:07:38;26.30;50.60
36652;DHT22;53334;51.976;20.144;2024-03-23T08:10:09;26.30;50.60
36652;DHT22;53334;51.976;20.144;2024-03-23T08:12:46;26.40;51.10
36652;DHT22;53334;51.976;20.144;2024-03-23T08:15:17;26.30;50.80
36652;DHT22;53334;51.976;20.144;2024-03-23T08:17:49;26.40;50.60
36652;DHT22;53334;51.976;20.144;2024-03-23T08:20:20;26.40;50.40
36652;DHT22;53334;51.976;20.144;2024-03-23T08:22:52;26.40;50.10
36652;DHT22;53334;51.976;20.144;2024-03-23T08:25:23;26.40;49.90
36652;DHT22;53334;51.976;20.144;2024-03-23T08:27:56;26.40;49.70
36652;DHT22;53334;51.976;20.144;2024-03-23T08:30:27;26.40;49.50
36652;DHT22;53334;51.976;20.144;2024-03-23T08:32:59;26.40;49.40
36652;DHT22;53334;51.976;20.144;2024-03-23T08:35:30;26.40;49.20
36652;DHT22;53334;51.976;20.144;2024-03-23T08:38:02;26.40;49.00
36652;DHT22;53334;51.976;20.144;2024-03-23T08:40:33;26.40;48.70
36652;DHT22;53334;51.976;20.144;2024-03-23T08:43:06;26.40;48.60
36652;DHT22;53334;51.976;20.144;2024-03-23T08:45:37;26.40;48.60
36652;DHT22;53334;51.976;20.144;2024-03-23T08:48:09;26.40;48.40
36652;DHT22;53334;51.976;20.144;2024-03-23T08:50:40;26.40;48.50
36652;DHT22;53334;51.976;20.144;2024-03-23T08:53:12;26.40;48.50
36652;DHT22;53334;51.976;20.144;2024-03-23T08:55:42;26.40;48.60
36652;DHT22;53334;51.976;20.144;2024-03-23T08:58:25;26.40;48.60
36652;DHT22;53334;51.976;20.144;2024-03-23T09:01:00;26.40;48.00
36652;DHT22;53334;51.976;20.144;2024-03-23T09:03:34;26.40;43.40
36652;DHT22;53334;51.976;20.144;2024-03-23T09:06:06;26.30;42.20
36652;DHT22;53334;51.976;20.144;2024-03-23T09:08:38;26.30;40.90
36652;DHT22;53334;51.976;20.144;2024-03-23T09:11:11;26.20;41.40
36652;DHT22;53334;51.976;20.144;2024-03-23T09:13:45;26.20;42.30
36652;DHT22;53334;51.976;20.144;2024-03-23T09:16:16;26.10;42.70
36652;DHT22;53334;51.976;20.144;2024-03-23T09:18:48;26.10;42.20
36652;DHT22;53334;51.976;20.144;2024-03-23T09:21:19;26.20;42.50
36652;DHT22;53334;51.976;20.144;2024-03-23T09:23:50;26.10;42.00
36652;DHT22;53334;51.976;20.144;2024-03-23T09:26:21;26.10;42.70
36652;DHT22;53334;51.976;20.144;2024-03-23T09:28:54;26.20;41.90
36652;DHT22;53334;51.976;20.144;2024-03-23T09:31:25;26.20;42.10
36652;DHT22;53334;51.976;20.144;2024-03-23T09:33:57;26.20;42.20
36652;DHT22;53334;51.976;20.144;2024-03-23T09:36:28;26.20;42.70
36652;DHT22;53334;51.976;20.144;2024-03-23T09:39:00;26.20;43.10
36652;DHT22;53334;51.976;20.144;2024-03-23T09:41:31;26.20;43.10
36652;DHT22;53334;51.976;20.144;2024-03-23T09:44:05;26.20;42.90
36652;DHT22;53334;51.976;20.144;2024-03-23T09:46:37;26.30;43.20
36652;DHT22;53334;51.976;20.144;2024-03-23T09:49:10;26.30;42.90
36652;DHT22;53334;51.976;20.144;2024-03-23T09:51:41;26.30;42.90
36652;DHT22;53334;51.976;20.144;2024-03-23T09:54:13;26.30;42.70
36652;DHT22;53334;51.976;20.144;2024-03-23T09:56:44;26.30;43.00
36652;DHT22;53334;51.976;20.144;2024-03-23T09:59:17;26.40;43.30
36652;DHT22;53334;51.976;20.144;2024-03-23T10:01:48;26.40;43.30
36652;DHT22;53334;51.976;20.144;2024-03-23T10:04:36;26.40;43.30
36652;DHT22;53334;51.976;20.144;2024-03-23T10:07:10;26.40;43.30
36652;DHT22;53334;51.976;20.144;2024-03-23T10:09:42;26.40;43.00
36652;DHT22;53334;51.976;20.144;2024-03-23T10:12:14;26.40;43.20
36652;DHT22;53334;51.976;20.144;2024-03-23T10:14:47;26.40;42.90
36652;DHT22;53334;51.976;20.144;2024-03-23T10:17:19;26.40;43.00
36652;DHT22;53334;51.976;20.144;2024-03-23T10:19:51;26.40;42.90
36652;DHT22;53334;51.976;20.144;2024-03-23T10:22:23;26.40;42.80
36652;DHT22;53334;51.976;20.144;2024-03-23T10:24:55;26.40;42.40
36652;DHT22;53334;51.976;20.144;2024-03-23T10:27:38;26.40;42.30
36652;DHT22;53334;51.976;20.144;2024-03-23T10:30:12;26.40;42.00
36652;DHT22;53334;51.976;20.144;2024-03-23T10:32:43;26.40;42.20
36652;DHT22;53334;51.976;20.144;2024-03-23T10:35:17;26.40;42.20
36652;DHT22;53334;51.976;20.144;2024-03-23T10:37:49;26.40;42.10
36652;DHT22;53334;51.976;20.144;2024-03-23T10:40:22;26.40;42.20
36652;DHT22;53334;51.976;20.144;2024-03-23T10:42:55;26.40;42.10
36652;DHT22;53334;51.976;20.144;2024-03-23T10:45:30;26.40;41.80
36652;DHT22;53334;51.976;20.144;2024-03-23T10:48:01;26.30;40.60
36652;DHT22;53334;51.976;20.144;2024-03-23T10:50:33;26.30;40.70
36652;DHT22;53334;51.976;20.144;2024-03-23T10:53:04;26.30;40.90
36652;DHT22;53334;51.976;20.144;2024-03-23T10:55:36;26.30;40.90
36652;DHT22;53334;51.976;20.144;2024-03-23T10:58:07;26.20;41.00
36652;DHT22;53334;51.976;20.144;2024-03-23T11:00:41;26.20;41.00
36652;DHT22;53334;51.976;20.144;2024-03-23T11:06:02;26.20;41.00
36652;DHT22;53334;51.976;20.144;2024-03-23T11:08:34;26.20;41.10
36652;DHT22;53334;51.976;20.144;2024-03-23T11:11:19;26.20;41.10
36652;DHT22;53334;51.976;20.144;2024-03-23T11:13:50;26.20;41.20
36652;DHT22;53334;51.976;20.144;2024-03-23T11:16:24;26.20;40.70
36652;DHT22;53334;51.976;20.144;2024-03-23T11:19:33;26.20;41.00
36652;DHT22;53334;51.976;20.144;2024-03-23T11:21:54;26.20;40.60
36652;DHT22;53334;51.976;20.144;2024-03-23T11:24:25;26.20;40.80
36652;DHT22;53334;51.976;20.144;2024-03-23T11:26:57;26.20;40.80
36652;DHT22;53334;51.976;20.144;2024-03-23T11:29:31;26.20;40.50
36652;DHT22;53334;51.976;20.144;2024-03-23T11:32:04;26.20;40.80
36652;DHT22;53334;51.976;20.144;2024-03-23T11:34:35;26.20;40.30
36652;DHT22;53334;51.976;20.144;2024-03-23T11:37:09;26.20;40.40
36652;DHT22;53334;51.976;20.144;2024-03-23T11:39:40;26.20;40.60
36652;DHT22;53334;51.976;20.144;2024-03-23T11:42:12;26.20;40.30
36652;DHT22;53334;51.976;20.144;2024-03-23T11:44:46;26.10;39.80
36652;DHT22;53334;51.976;20.144;2024-03-23T11:47:19;26.10;40.10
36652;DHT22;53334;51.976;20.144;2024-03-23T11:49:50;26.10;39.90
36652;DHT22;53334;51.976;20.144;2024-03-23T11:52:22;26.10;40.10
36652;DHT22;53334;51.976;20.144;2024-03-23T11:54:58;26.10;39.50
36652;DHT22;53334;51.976;20.144;2024-03-23T11:57:34;26.10;39.40
36652;DHT22;53334;51.976;20.144;2024-03-23T12:00:19;26.10;39.50
36652;DHT22;53334;51.976;20.144;2024-03-23T12:02:53;26.10;39.90
36652;DHT22;53334;51.976;20.144;2024-03-23T12:05:25;26.10;40.00
36652;DHT22;53334;51.976;20.144;2024-03-23T12:10:44;26.00;39.30
36652;DHT22;53334;51.976;20.144;2024-03-23T12:13:17;26.00;40.00
36652;DHT22;53334;51.976;20.144;2024-03-23T12:15:49;26.00;40.00
36652;DHT22;53334;51.976;20.144;2024-03-23T12:18:24;26.00;39.90
36652;DHT22;53334;51.976;20.144;2024-03-23T12:20:56;26.00;39.40
36652;DHT22;53334;51.976;20.144;2024-03-23T12:23:27;26.00;39.90
36652;DHT22;53334;51.976;20.144;2024-03-23T12:25:59;26.00;39.90
36652;DHT22;53334;51.976;20.144;2024-03-23T12:28:30;26.00;39.80
36652;DHT22;53334;51.976;20.144;2024-03-23T12:31:02;26.00;39.70
36652;DHT22;53334;51.976;20.144;2024-03-23T12:33:34;26.00;40.30
36652;DHT22;53334;51.976;20.144;2024-03-23T12:36:06;26.00;40.40
36652;DHT22;53334;51.976;20.144;2024-03-23T12:38:37;26.00;40.20
36652;DHT22;53334;51.976;20.144;2024-03-23T12:41:09;26.00;40.30
36652;DHT22;53334;51.976;20.144;2024-03-23T12:43:41;26.00;40.30
36652;DHT22;53334;51.976;20.144;2024-03-23T12:46:13;26.00;40.60
36652;DHT22;53334;51.976;20.144;2024-03-23T12:48:45;26.00;40.80
36652;DHT22;53334;51.976;20.144;2024-03-23T12:51:17;26.00;40.70
36652;DHT22;53334;51.976;20.144;2024-03-23T12:53:48;26.00;40.80
36652;DHT22;53334;51.976;20.144;2024-03-23T12:56:20;26.00;41.00
36652;DHT22;53334;51.976;20.144;2024-03-23T12:58:51;26.00;41.10
36652;DHT22;53334;51.976;20.144;2024-03-23T13:01:24;26.00;41.20
36652;DHT22;53334;51.976;20.144;2024-03-23T13:03:56;26.00;41.20
36652;DHT22;53334;51.976;20.144;2024-03-23T13:06:29;26.00;41.50
36652;DHT22;53334;51.976;20.144;2024-03-23T13:09:04;26.00;41.50
36652;DHT22;53334;51.976;20.144;2024-03-23T13:11:36;26.00;41.60
36652;DHT22;53334;51.976;20.144;2024-03-23T13:14:07;26.00;41.60
36652;DHT22;53334;51.976;20.144;2024-03-23T13:16:39;26.00;41.70
36652;DHT22;53334;51.976;20.144;2024-03-23T13:19:11;26.00;42.80
36652;DHT22;53334;51.976;20.144;2024-03-23T13:21:43;26.00;43.00
36652;DHT22;53334;51.976;20.144;2024-03-23T13:24:14;26.00;43.10
36652;DHT22;53334;51.976;20.144;2024-03-23T13:26:46;26.00;43.10
36652;DHT22;53334;51.976;20.144;2024-03-23T13:29:17;26.10;43.10
36652;DHT22;53334;51.976;20.144;2024-03-23T13:31:50;26.10;43.00
36652;DHT22;53334;51.976;20.144;2024-03-23T13:34:22;26.10;43.00
36652;DHT22;53334;51.976;20.144;2024-03-23T13:36:54;26.10;42.90
36652;DHT22;53334;51.976;20.144;2024-03-23T13:39:27;26.00;42.80
36652;DHT22;53334;51.976;20.144;2024-03-23T13:41:59;26.00;43.10
36652;DHT22;53334;51.976;20.144;2024-03-23T13:44:30;26.00;43.10
36652;DHT22;53334;51.976;20.144;2024-03-23T13:47:01;26.00;43.00
36652;DHT22;53334;51.976;20.144;2024-03-23T13:49:35;26.00;43.10
36652;DHT22;53334;51.976;20.144;2024-03-23T13:52:07;26.00;43.00
36652;DHT22;53334;51.976;20.144;2024-03-23T13:54:38;26.00;43.10
36652;DHT22;53334;51.976;20.144;2024-03-23T13:57:15;26.00;43.00
36652;DHT22;53334;51.976;20.144;2024-03-23T13:59:47;26.00;43.00
36652;DHT22;53334;51.976;20.144;2024-03-23T14:02:20;26.00;43.00
36652;DHT22;53334;51.976;20.144;2024-03-23T14:04:52;26.00;42.90
36652;DHT22;53334;51.976;20.144;2024-03-23T14:07:25;26.00;42.90
36652;DHT22;53334;51.976;20.144;2024-03-23T14:09:56;26.00;42.90
36652;DHT22;53334;51.976;20.144;2024-03-23T14:12:34;26.00;43.20
36652;DHT22;53334;51.976;20.144;2024-03-23T14:15:05;25.90;43.40
36652;DHT22;53334;51.976;20.144;2024-03-23T14:17:37;25.90;42.80
36652;DHT22;53334;51.976;20.144;2024-03-23T14:20:11;25.90;42.80
36652;DHT22;53334;51.976;20.144;2024-03-23T14:22:43;25.90;43.20
36652;DHT22;53334;51.976;20.144;2024-03-23T14:25:15;25.90;43.00
36652;DHT22;53334;51.976;20.144;2024-03-23T14:27:47;25.90;43.30
36652;DHT22;53334;51.976;20.144;2024-03-23T14:30:18;25.90;43.20
36652;DHT22;53334;51.976;20.144;2024-03-23T14:32:50;25.90;43.10
36652;DHT22;53334;51.976;20.144;2024-03-23T14:35:23;25.90;43.10
36652;DHT22;53334;51.976;20.144;2024-03-23T14:37:57;25.90;43.20
36652;DHT22;53334;51.976;20.144;2024-03-23T14:40:28;25.90;43.50
36652;DHT22;53334;51.976;20.144;2024-03-23T14:43:00;25.90;43.60
36652;DHT22;53334;51.976;20.144;2024-03-23T14:45:33;25.90;44.10
36652;DHT22;53334;51.976;20.144;2024-03-23T14:48:04;25.90;43.60
36652;DHT22;53334;51.976;20.144;2024-03-23T14:50:40;25.90;43.50
36652;DHT22;53334;51.976;20.144;2024-03-23T14:53:11;25.90;43.50
36652;DHT22;53334;51.976;20.144;2024-03-23T14:55:45;25.90;43.50
36652;DHT22;53334;51.976;20.144;2024-03-23T14:58:19;25.80;43.50
36652;DHT22;53334;51.976;20.144;2024-03-23T15:00:51;25.90;43.70
36652;DHT22;53334;51.976;20.144;2024-03-23T15:03:22;25.80;43.60
36652;DHT22;53334;51.976;20.144;2024-03-23T15:05:56;25.90;43.90
36652;DHT22;53334;51.976;20.144;2024-03-23T15:08:28;25.80;43.90
36652;DHT22;53334;51.976;20.144;2024-03-23T15:11:00;25.90;44.20
36652;DHT22;53334;51.976;20.144;2024-03-23T15:13:36;25.90;44.30
36652;DHT22;53334;51.976;20.144;2024-03-23T15:16:08;25.90;44.60
36652;DHT22;53334;51.976;20.144;2024-03-23T15:18:39;25.90;45.10
36652;DHT22;53334;51.976;20.144;2024-03-23T15:21:12;25.90;46.00
36652;DHT22;53334;51.976;20.144;2024-03-23T15:23:45;25.90;46.50
36652;DHT22;53334;51.976;20.144;2024-03-23T15:26:16;25.90;46.40
36652;DHT22;53334;51.976;20.144;2024-03-23T15:28:47;25.90;46.40
36652;DHT22;53334;51.976;20.144;2024-03-23T15:31:38;25.90;46.00
36652;DHT22;53334;51.976;20.144;2024-03-23T15:34:09;25.90;45.60
36652;DHT22;53334;51.976;20.144;2024-03-23T15:36:42;25.90;45.30
36652;DHT22;53334;51.976;20.144;2024-03-23T15:39:15;25.90;44.90
36652;DHT22;53334;51.976;20.144;2024-03-23T15:41:47;25.90;45.70
36652;DHT22;53334;51.976;20.144;2024-03-23T15:44:18;25.90;46.00
36652;DHT22;53334;51.976;20.144;2024-03-23T15:46:50;25.90;46.30
36652;DHT22;53334;51.976;20.144;2024-03-23T15:49:21;25.90;46.70
36652;DHT22;53334;51.976;20.144;2024-03-23T15:51:54;25.90;46.70
36652;DHT22;53334;51.976;20.144;2024-03-23T15:54:25;25.90;46.70
36652;DHT22;53334;51.976;20.144;2024-03-23T15:56:57;26.00;46.90
36652;DHT22;53334;51.976;20.144;2024-03-23T15:59:28;26.00;47.10
36652;DHT22;53334;51.976;20.144;2024-03-23T16:02:00;26.00;47.10
36652;DHT22;53334;51.976;20.144;2024-03-23T16:04:33;26.00;47.20
36652;DHT22;53334;51.976;20.144;2024-03-23T16:07:06;26.00;48.00
36652;DHT22;53334;51.976;20.144;2024-03-23T16:09:37;26.00;47.80
36652;DHT22;53334;51.976;20.144;2024-03-23T16:12:09;26.00;48.10
36652;DHT22;53334;51.976;20.144;2024-03-23T16:14:40;26.00;48.40
36652;DHT22;53334;51.976;20.144;2024-03-23T16:17:12;26.00;48.50
36652;DHT22;53334;51.976;20.144;2024-03-23T16:19:43;26.00;48.70
36652;DHT22;53334;51.976;20.144;2024-03-23T16:22:16;26.00;48.90
36652;DHT22;53334;51.976;20.144;2024-03-23T16:24:47;26.00;48.90
36652;DHT22;53334;51.976;20.144;2024-03-23T16:27:19;26.00;49.00
36652;DHT22;53334;51.976;20.144;2024-03-23T16:29:50;26.00;49.00
36652;DHT22;53334;51.976;20.144;2024-03-23T16:32:21;26.00;48.90
36652;DHT22;53334;51.976;20.144;2024-03-23T16:34:54;26.00;48.90
36652;DHT22;53334;51.976;20.144;2024-03-23T16:37:27;26.00;48.90
36652;DHT22;53334;51.976;20.144;2024-03-23T16:39:58;26.00;48.90
36652;DHT22;53334;51.976;20.144;2024-03-23T16:42:30;26.00;48.80
36652;DHT22;53334;51.976;20.144;2024-03-23T16:45:01;26.00;48.80